Time;durP1;ratioP1;P1;durP2;ratioP2;P2;SDS_P1;SDS_P2;PMS_P1;PMS_P2;Temp;Humidity;BMP_temperature;BMP_pressure;BME280_temperature;BME280_humidity;BME280_pressure;Samples;Min_cycle;Max_cycle;Signal;HPM_P1;HPM_P2
2021/01/19 00:00:07;;;;;;;27.55;8.10;;;6.70;61.00;;;;;;5010250;28;20411;-75
2021/01/19 00:02:33;;;;;;;17.20;6.68;;;6.70;60.80;;;;;;5010508;28;20897;-74
2021/01/19 00:05:00;;;;;;;18.27;7.00;;;6.70;59.40;;;;;;5011131;28;20385;-72
2021/01/19 00:07:29;;;;;;;17.65;7.20;;;6.80;59.00;;;;;;5009867;28;20528;-73
2021/01/19 00:09:54;;;;;;;21.05;7.90;;;6.80;58.20;;;;;;5010514;28;21170;-72
2021/01/19 00:12:20;;;;;;;18.90;7.67;;;6.80;57.90;;;;;;5010944;28;20389;-75
2021/01/19 00:14:46;;;;;;;14.23;7.47;;;6.80;58.60;;;;;;5010688;28;20400;-71
2021/01/19 00:17:12;;;;;;;19.03;7.43;;;6.80;58.30;;;;;;5009964;28;20413;-72
2021/01/19 00:19:37;;;;;;;17.20;7.50;;;6.80;58.80;;;;;;5010568;28;20393;-73
2021/01/19 00:22:03;;;;;;;18.30;6.20;;;6.80;58.40;;;;;;5010826;28;20435;-72
2021/01/19 00:24:28;;;;;;;18.43;6.80;;;6.80;57.60;;;;;;5010776;28;20870;-72
2021/01/19 00:26:54;;;;;;;19.80;6.30;;;6.70;58.30;;;;;;5010757;28;20387;-71
2021/01/19 00:29:20;;;;;;;18.37;6.97;;;6.80;56.60;;;;;;5010088;28;20396;-72
2021/01/19 00:31:45;;;;;;;19.90;6.90;;;6.70;56.10;;;;;;4996723;28;20400;-71
2021/01/19 00:34:11;;;;;;;17.63;6.40;;;6.70;57.10;;;;;;4994145;28;20447;-72
2021/01/19 00:36:36;;;;;;;12.35;5.60;;;6.70;55.70;;;;;;4994097;28;20863;-72
2021/01/19 00:39:02;;;;;;;12.77;5.90;;;6.80;55.00;;;;;;4993462;28;20416;-74
2021/01/19 00:41:28;;;;;;;11.32;5.10;;;6.80;54.10;;;;;;4993607;28;20386;-72
2021/01/19 00:43:53;;;;;;;14.50;5.60;;;6.80;54.30;;;;;;5010222;28;20453;-72
2021/01/19 00:46:19;;;;;;;13.93;4.80;;;6.80;53.90;;;;;;5013177;28;20392;-73
2021/01/19 00:48:44;;;;;;;12.10;4.83;;;6.80;52.80;;;;;;5013800;28;20912;-74
2021/01/19 00:51:10;;;;;;;16.00;5.43;;;6.80;52.90;;;;;;5014390;28;20952;-74
2021/01/19 00:53:35;;;;;;;13.53;5.00;;;6.80;51.20;;;;;;5014961;28;20416;-73
2021/01/19 00:56:01;;;;;;;16.83;4.73;;;6.80;51.10;;;;;;5015125;28;20400;-72
2021/01/19 00:58:26;;;;;;;11.17;5.40;;;6.80;52.00;;;;;;5012590;28;20443;-72
2021/01/19 01:00:52;;;;;;;14.37;5.37;;;6.80;52.20;;;;;;5013198;28;20454;-72
2021/01/19 01:03:18;;;;;;;15.60;5.37;;;6.80;52.20;;;;;;5010607;28;20407;-73
2021/01/19 01:05:43;;;;;;;12.20;4.90;;;6.80;52.30;;;;;;5010462;28;20393;-73
2021/01/19 01:08:09;;;;;;;15.23;5.27;;;6.70;52.90;;;;;;5010220;28;20866;-72
2021/01/19 01:10:35;;;;;;;13.63;4.93;;;6.80;52.40;;;;;;5009924;28;20397;-73
2021/01/19 01:13:01;;;;;;;11.07;4.30;;;6.80;51.60;;;;;;5009513;28;20545;-72
2021/01/19 01:15:35;;;;;;;14.80;4.73;;;6.70;52.20;;;;;;5010636;28;20456;-72
2021/01/19 01:18:00;;;;;;;10.30;4.97;;;6.70;52.30;;;;;;5010628;28;20412;-72
2021/01/19 01:20:26;;;;;;;10.43;4.22;;;6.70;52.00;;;;;;5013471;28;20396;-72
2021/01/19 01:22:53;;;;;;;7.85;4.40;;;6.70;52.20;;;;;;5013845;28;20438;-72
2021/01/19 01:25:19;;;;;;;8.98;4.03;;;6.70;51.80;;;;;;5014100;28;20467;-74
2021/01/19 01:27:46;;;;;;;7.18;3.80;;;6.70;50.80;;;;;;5012962;28;20520;-72
2021/01/19 01:30:13;;;;;;;12.75;4.28;;;6.70;51.30;;;;;;5013429;28;20879;-72
2021/01/19 01:32:44;;;;;;;14.48;4.50;;;6.60;51.10;;;;;;5013584;28;20399;-72
2021/01/19 01:35:11;;;;;;;5.97;3.65;;;6.70;50.70;;;;;;5012343;28;20762;-72
2021/01/19 01:38:02;;;;;;;6.57;3.30;;;6.70;49.40;;;;;;5013179;28;20405;-73
2021/01/19 01:40:28;;;;;;;7.68;3.60;;;6.80;49.60;;;;;;5012396;28;20385;-72
2021/01/19 01:43:08;;;;;;;10.43;3.33;;;6.70;49.30;;;;;;5012384;28;20420;-71
2021/01/19 01:45:34;;;;;;;7.93;3.50;;;6.80;48.90;;;;;;5013661;28;20417;-73
2021/01/19 01:48:00;;;;;;;12.43;3.63;;;6.70;48.70;;;;;;5012012;28;20810;-72
2021/01/19 01:50:25;;;;;;;6.88;2.95;;;6.70;48.70;;;;;;5012798;28;20404;-71
2021/01/19 01:52:52;;;;;;;10.40;3.42;;;6.70;48.80;;;;;;5013379;28;20406;-71
2021/01/19 01:55:19;;;;;;;10.25;3.15;;;6.60;48.70;;;;;;5012588;28;20890;-71
2021/01/19 01:57:44;;;;;;;12.80;3.17;;;6.70;48.30;;;;;;5012986;28;20423;-72
2021/01/19 02:00:12;;;;;;;9.23;2.80;;;6.70;47.50;;;;;;5012745;28;20534;-72
2021/01/19 02:03:07;;;;;;;8.68;2.80;;;6.80;47.60;;;;;;5011662;28;20779;-72
2021/01/19 02:05:32;;;;;;;9.50;3.00;;;6.80;46.90;;;;;;4999804;28;20408;-73
2021/01/19 02:08:33;;;;;;;6.70;3.00;;;6.80;46.50;;;;;;5011583;28;20750;-73
2021/01/19 02:11:46;;;;;;;10.53;3.40;;;6.80;45.70;;;;;;5012581;28;20517;-72
2021/01/19 02:14:28;;;;;;;10.05;2.78;;;6.80;46.20;;;;;;4933038;29;20503;-72
2021/01/19 02:17:13;;;;;;;7.65;2.42;;;6.70;45.70;;;;;;5012902;28;20511;-74
2021/01/19 02:19:41;;;;;;;6.43;2.30;;;6.70;45.80;;;;;;5012880;28;20400;-71
2021/01/19 02:22:28;;;;;;;5.75;2.63;;;6.70;45.70;;;;;;5013870;28;20394;-72
2021/01/19 02:25:41;;;;;;;8.85;2.50;;;6.80;43.80;;;;;;5013191;28;20381;-73
2021/01/19 02:28:17;;;;;;;8.45;3.25;;;6.70;43.40;;;;;;4966745;28;20487;-72
2021/01/19 02:31:04;;;;;;;11.43;3.00;;;6.70;43.50;;;;;;5011330;28;20393;-72
2021/01/19 02:33:38;;;;;;;7.00;2.80;;;6.70;43.70;;;;;;5011822;28;20393;-73
2021/01/19 02:36:11;;;;;;;6.45;2.25;;;6.70;43.00;;;;;;5012264;28;20419;-72
2021/01/19 02:38:47;;;;;;;5.20;2.10;;;6.60;41.60;;;;;;5012209;28;20413;-72
2021/01/19 02:41:13;;;;;;;5.68;2.20;;;6.60;42.10;;;;;;5011544;28;20446;-73
2021/01/19 02:43:40;;;;;;;9.82;2.88;;;6.50;42.20;;;;;;5011515;28;20424;-72
2021/01/19 02:46:05;;;;;;;8.82;2.50;;;6.40;43.20;;;;;;5012226;28;20893;-72
2021/01/19 02:48:31;;;;;;;7.30;2.40;;;6.40;42.70;;;;;;5012163;28;20384;-72
2021/01/19 02:50:57;;;;;;;8.55;2.50;;;6.50;42.60;;;;;;5010497;28;20405;-72
2021/01/19 02:53:23;;;;;;;6.82;2.70;;;6.40;42.00;;;;;;5012401;28;20399;-74
2021/01/19 02:55:49;;;;;;;5.55;2.30;;;6.40;42.20;;;;;;5011336;28;20409;-71
2021/01/19 02:58:40;;;;;;;8.45;2.80;;;6.40;42.70;;;;;;5012252;28;20440;-72
2021/01/19 03:01:09;;;;;;;6.43;2.40;;;6.40;42.40;;;;;;5011870;28;20481;-72
2021/01/19 03:03:37;;;;;;;8.25;2.90;;;6.40;43.00;;;;;;5010750;28;20389;-72
2021/01/19 03:06:12;;;;;;;5.30;2.50;;;6.30;42.80;;;;;;5011888;28;20384;-71
2021/01/19 03:08:40;;;;;;;10.65;2.55;;;6.30;42.00;;;;;;5011123;28;20503;-74
2021/01/19 03:11:07;;;;;;;8.10;2.20;;;6.40;41.50;;;;;;5011782;28;20702;-72
2021/01/19 03:13:32;;;;;;;6.18;2.72;;;6.40;41.60;;;;;;5011672;28;20416;-72
2021/01/19 03:16:05;;;;;;;9.95;3.10;;;6.30;42.20;;;;;;5011592;28;20826;-72
2021/01/19 03:18:32;;;;;;;5.68;2.60;;;6.30;42.50;;;;;;5011867;28;20408;-73
2021/01/19 03:20:58;;;;;;;7.60;2.78;;;6.30;42.70;;;;;;5013939;28;20779;-73
2021/01/19 03:23:24;;;;;;;8.67;2.70;;;6.40;43.10;;;;;;5014010;28;20404;-73
2021/01/19 03:25:49;;;;;;;7.90;2.30;;;6.40;43.80;;;;;;5014906;28;20954;-73
2021/01/19 03:28:15;;;;;;;5.17;2.37;;;6.40;43.40;;;;;;5012118;28;20897;-74
2021/01/19 03:30:40;;;;;;;4.40;2.40;;;6.40;43.60;;;;;;5011081;28;20774;-71
2021/01/19 03:33:06;;;;;;;6.80;2.83;;;6.40;43.70;;;;;;5011394;28;20457;-72
2021/01/19 03:35:31;;;;;;;6.80;2.83;;;6.50;42.90;;;;;;5011381;28;20950;-73
2021/01/19 03:37:57;;;;;;;8.57;2.60;;;6.40;43.20;;;;;;5010767;28;20452;-72
2021/01/19 03:40:22;;;;;;;4.20;2.50;;;6.40;43.20;;;;;;5010925;28;20403;-72
2021/01/19 03:42:48;;;;;;;6.72;2.60;;;6.40;42.50;;;;;;5010878;28;20742;-73
2021/01/19 03:45:13;;;;;;;7.90;2.83;;;6.40;43.10;;;;;;5011128;28;20396;-72
2021/01/19 03:47:39;;;;;;;6.22;2.90;;;6.50;42.70;;;;;;5011319;28;20385;-72
2021/01/19 03:50:05;;;;;;;7.90;2.50;;;6.40;42.70;;;;;;5010423;28;20409;-73
2021/01/19 03:52:31;;;;;;;9.10;3.13;;;6.40;42.90;;;;;;5011212;28;20481;-73
2021/01/19 03:54:56;;;;;;;10.02;2.60;;;6.40;42.90;;;;;;5010932;28;20403;-73
2021/01/19 03:57:22;;;;;;;10.38;3.10;;;6.30;42.00;;;;;;5011199;28;20479;-72
2021/01/19 03:59:47;;;;;;;9.35;2.88;;;6.40;41.70;;;;;;5010533;28;20423;-72
2021/01/19 04:02:13;;;;;;;3.90;2.30;;;6.40;41.20;;;;;;5010709;28;20392;-72
2021/01/19 04:04:38;;;;;;;9.43;2.78;;;6.40;41.80;;;;;;5010132;28;20400;-73
2021/01/19 04:07:04;;;;;;;6.50;2.67;;;6.50;41.40;;;;;;5011175;28;20407;-74
2021/01/19 04:09:29;;;;;;;9.05;3.13;;;6.40;41.50;;;;;;5016158;28;20424;-73
2021/01/19 04:11:55;;;;;;;8.70;3.05;;;6.40;41.40;;;;;;5016351;28;20402;-72
2021/01/19 04:14:20;;;;;;;12.27;3.58;;;6.30;41.90;;;;;;5014664;28;20392;-73
2021/01/19 04:16:46;;;;;;;12.10;3.85;;;6.30;43.20;;;;;;5013987;28;20790;-73
2021/01/19 04:19:11;;;;;;;8.15;3.90;;;6.40;42.00;;;;;;5014302;28;20396;-73
2021/01/19 04:21:38;;;;;;;10.52;3.80;;;6.40;42.30;;;;;;5016341;28;20436;-72
2021/01/19 04:24:04;;;;;;;9.25;4.28;;;6.40;43.00;;;;;;5016891;28;20402;-73
2021/01/19 04:26:30;;;;;;;5.50;3.50;;;6.40;43.10;;;;;;5015389;28;20392;-72
2021/01/19 04:28:55;;;;;;;8.90;3.55;;;6.40;43.40;;;;;;5015589;28;20871;-72
2021/01/19 04:31:21;;;;;;;7.88;3.55;;;6.40;42.00;;;;;;5016436;28;20392;-72
2021/01/19 04:33:47;;;;;;;13.88;4.40;;;6.50;42.80;;;;;;5016337;28;20397;-72
2021/01/19 04:36:12;;;;;;;11.13;3.78;;;6.40;44.10;;;;;;5016722;28;20393;-72
2021/01/19 04:38:38;;;;;;;9.43;3.77;;;6.30;45.10;;;;;;5015546;28;20471;-72
2021/01/19 04:41:07;;;;;;;11.03;4.00;;;6.20;46.90;;;;;;5010407;28;20838;-72
2021/01/19 04:43:33;;;;;;;14.45;4.18;;;6.20;47.50;;;;;;5010313;28;20467;-73
2021/01/19 04:46:02;;;;;;;9.68;4.07;;;6.20;48.90;;;;;;5009736;28;20477;-75
2021/01/19 04:48:30;;;;;;;14.07;4.60;;;6.20;49.60;;;;;;5010343;28;20456;-73
2021/01/19 04:50:57;;;;;;;13.90;4.70;;;6.20;49.10;;;;;;5009508;28;20809;-72
2021/01/19 04:53:28;;;;;;;14.50;5.18;;;6.10;49.90;;;;;;5011551;28;20376;-72
2021/01/19 04:55:54;;;;;;;12.87;4.40;;;6.20;48.80;;;;;;5014350;28;20392;-73
2021/01/19 04:58:22;;;;;;;10.15;3.90;;;6.30;47.80;;;;;;5012961;28;20418;-73
2021/01/19 05:01:19;;;;;;;11.23;4.60;;;6.20;48.90;;;;;;5013103;28;20435;-74
2021/01/19 05:04:16;;;;;;;14.50;4.30;;;6.20;48.40;;;;;;5013832;28;20429;-72
2021/01/19 05:06:41;;;;;;;8.73;3.88;;;6.20;50.20;;;;;;5012646;28;20751;-73
2021/01/19 05:09:08;;;;;;;8.83;4.33;;;6.10;52.00;;;;;;5012100;28;20396;-73
2021/01/19 05:11:47;;;;;;;13.27;4.70;;;6.10;51.90;;;;;;5013988;28;20888;-73
2021/01/19 05:14:18;;;;;;;9.75;4.20;;;6.20;51.60;;;;;;5013047;28;20511;-71
2021/01/19 05:16:44;;;;;;;12.55;4.05;;;6.10;53.00;;;;;;5013601;28;20416;-73
2021/01/19 05:19:10;;;;;;;11.93;4.30;;;6.10;54.30;;;;;;5013149;28;20917;-73
2021/01/19 05:21:40;;;;;;;14.77;4.72;;;6.00;54.70;;;;;;5013463;28;20458;-72
2021/01/19 05:24:06;;;;;;;12.95;4.80;;;6.00;55.20;;;;;;5013573;28;20392;-72
2021/01/19 05:26:35;;;;;;;10.38;4.40;;;6.00;56.40;;;;;;5013325;28;20622;-72
2021/01/19 05:29:03;;;;;;;11.45;5.60;;;5.90;57.60;;;;;;5011770;28;20409;-72
2021/01/19 05:31:30;;;;;;;15.25;5.50;;;6.00;58.60;;;;;;5014732;28;20392;-72
2021/01/19 05:34:10;;;;;;;13.05;4.65;;;6.00;59.40;;;;;;5015548;28;20404;-72
2021/01/19 05:36:49;;;;;;;8.93;5.07;;;5.90;60.60;;;;;;5014865;28;20380;-72
2021/01/19 05:39:21;;;;;;;13.13;5.10;;;5.80;62.70;;;;;;5014468;28;20751;-72
2021/01/19 05:41:49;;;;;;;14.48;5.38;;;5.90;62.40;;;;;;5014239;28;20393;-73
2021/01/19 05:44:22;;;;;;;12.70;5.70;;;5.90;64.00;;;;;;5014879;28;20766;-72
2021/01/19 05:46:58;;;;;;;16.02;5.10;;;5.90;65.00;;;;;;5016786;28;20436;-73
2021/01/19 05:49:26;;;;;;;14.15;5.30;;;5.80;66.30;;;;;;5019717;28;20400;-73
2021/01/19 05:52:01;;;;;;;16.13;5.20;;;5.80;67.90;;;;;;5013922;28;20390;-71
2021/01/19 05:54:32;;;;;;;16.45;5.03;;;5.80;69.00;;;;;;5013146;28;20373;-73
2021/01/19 05:57:05;;;;;;;9.07;4.82;;;5.90;68.30;;;;;;5012349;28;20409;-73
2021/01/19 05:59:34;;;;;;;11.20;5.30;;;5.80;70.30;;;;;;5012694;28;20436;-72
2021/01/19 06:02:05;;;;;;;14.83;4.90;;;5.80;71.30;;;;;;5013017;28;20381;-72
2021/01/19 06:04:36;;;;;;;14.65;4.70;;;5.80;73.30;;;;;;5013228;28;20742;-72
2021/01/19 06:07:03;;;;;;;12.80;4.30;;;5.80;72.90;;;;;;5012963;28;20421;-72
2021/01/19 06:09:28;;;;;;;13.55;4.82;;;5.90;72.50;;;;;;5012108;28;20416;-73
2021/01/19 06:11:56;;;;;;;9.55;5.15;;;5.90;72.60;;;;;;5013228;28;20385;-71
2021/01/19 06:14:23;;;;;;;74.63;38.80;;;6.00;72.10;;;;;;5013014;28;20789;-72
2021/01/19 06:16:49;;;;;;;11.77;5.60;;;6.00;73.70;;;;;;5012553;28;20396;-72
2021/01/19 06:19:28;;;;;;;17.33;6.60;;;6.00;72.80;;;;;;5011888;28;20813;-73
2021/01/19 06:21:54;;;;;;;23.80;11.68;;;6.10;71.70;;;;;;5012405;28;20412;-73
2021/01/19 06:24:34;;;;;;;14.50;5.47;;;6.10;71.80;;;;;;5012631;28;20475;-73
2021/01/19 06:27:00;;;;;;;14.65;4.75;;;6.00;71.80;;;;;;5012241;28;20385;-72
2021/01/19 06:29:28;;;;;;;19.80;9.45;;;6.00;73.80;;;;;;5011834;28;20471;-73
2021/01/19 06:31:56;;;;;;;14.45;4.57;;;6.10;74.20;;;;;;5010171;28;20444;-74
2021/01/19 06:34:45;;;;;;;14.65;4.60;;;6.10;72.90;;;;;;5011742;28;20412;-74
2021/01/19 06:37:25;;;;;;;10.32;3.92;;;6.10;74.00;;;;;;5011106;28;20448;-73
2021/01/19 06:40:05;;;;;;;7.38;3.50;;;6.10;73.10;;;;;;5011844;28;20424;-72
2021/01/19 06:42:34;;;;;;;11.40;3.40;;;6.10;73.40;;;;;;5011897;28;20385;-72
2021/01/19 06:45:06;;;;;;;11.82;4.00;;;6.20;74.10;;;;;;5013432;28;20377;-74
2021/01/19 06:47:56;;;;;;;10.07;4.00;;;6.20;73.90;;;;;;5017123;28;20447;-74
2021/01/19 06:50:27;;;;;;;7.03;3.42;;;6.20;72.90;;;;;;5010574;28;20407;-73
2021/01/19 06:53:15;;;;;;;8.25;3.40;;;6.20;74.40;;;;;;5011773;28;20464;-71
2021/01/19 06:55:51;;;;;;;10.07;3.80;;;6.20;75.40;;;;;;5011764;28;20385;-72
2021/01/19 06:58:31;;;;;;;8.70;2.92;;;6.30;75.90;;;;;;5011507;28;20805;-72
2021/01/19 07:01:00;;;;;;;6.13;3.00;;;6.40;74.70;;;;;;5009631;28;20476;-73
2021/01/19 07:03:26;;;;;;;8.15;3.33;;;6.30;76.00;;;;;;5011674;28;20411;-73
2021/01/19 07:06:03;;;;;;;8.77;3.53;;;6.40;76.40;;;;;;5011353;28;20388;-73
2021/01/19 07:09:20;;;;;;;8.10;2.78;;;6.40;76.60;;;;;;5011273;28;20912;-72
2021/01/19 07:12:16;;;;;;;3.40;2.33;;;6.50;77.20;;;;;;4972784;28;20405;-73
2021/01/19 07:14:43;;;;;;;4.55;2.70;;;6.70;75.30;;;;;;5017525;28;20453;-74
2021/01/19 07:17:17;;;;;;;2.10;1.80;;;6.60;75.80;;;;;;5015217;28;20391;-72
2021/01/19 07:19:48;;;;;;;3.08;2.03;;;6.60;76.50;;;;;;5010605;28;20388;-73
2021/01/19 07:22:44;;;;;;;5.55;2.08;;;6.70;76.80;;;;;;5015749;28;20464;-72
2021/01/19 07:25:10;;;;;;;5.32;2.00;;;6.80;76.40;;;;;;5015313;28;20455;-70
2021/01/19 07:27:36;;;;;;;3.42;1.90;;;6.90;76.30;;;;;;5013306;28;20436;-73
2021/01/19 07:30:05;;;;;;;3.95;2.30;;;6.90;77.00;;;;;;5010758;28;20396;-71
2021/01/19 07:32:31;;;;;;;5.95;2.30;;;6.90;77.30;;;;;;5010813;28;20904;-72
2021/01/19 07:34:59;;;;;;;3.90;2.30;;;7.00;77.90;;;;;;5010859;28;20444;-71
2021/01/19 07:37:31;;;;;;;5.80;2.43;;;6.90;77.60;;;;;;5010731;28;20932;-71
2021/01/19 07:39:58;;;;;;;5.72;2.10;;;6.90;77.70;;;;;;5012497;28;20430;-72
2021/01/19 07:42:24;;;;;;;4.22;1.80;;;7.10;77.10;;;;;;5013959;28;20387;-73
2021/01/19 07:44:57;;;;;;;2.95;2.10;;;7.10;76.30;;;;;;5011401;28;20424;-72
2021/01/19 07:47:40;;;;;;;4.07;1.95;;;7.10;76.90;;;;;;5013709;28;20400;-74
2021/01/19 07:50:14;;;;;;;6.43;2.70;;;7.10;76.40;;;;;;5012681;28;20794;-73
2021/01/19 07:52:42;;;;;;;4.43;2.10;;;7.00;77.00;;;;;;5013714;28;20388;-71
2021/01/19 07:55:21;;;;;;;4.93;2.00;;;7.00;77.60;;;;;;5012553;28;20400;-72
2021/01/19 07:57:48;;;;;;;3.40;2.13;;;7.10;76.30;;;;;;5013030;28;20739;-71
2021/01/19 08:00:26;;;;;;;5.63;2.60;;;7.00;76.40;;;;;;5013827;28;20395;-73
2021/01/19 08:03:05;;;;;;;3.90;2.00;;;7.00;77.10;;;;;;5010466;28;20381;-74
2021/01/19 08:05:31;;;;;;;3.15;2.00;;;7.00;77.50;;;;;;5010088;28;20750;-73
2021/01/19 08:07:57;;;;;;;4.40;2.50;;;7.10;76.30;;;;;;5009985;28;20395;-75
2021/01/19 08:10:33;;;;;;;3.78;1.65;;;7.10;76.70;;;;;;5009987;28;20476;-72
2021/01/19 08:12:59;;;;;;;3.75;2.20;;;7.10;76.80;;;;;;5009442;28;20412;-76
2021/01/19 08:15:31;;;;;;;3.50;1.90;;;7.10;77.10;;;;;;5010249;28;20426;-76
2021/01/19 08:17:58;;;;;;;5.00;2.10;;;7.10;76.50;;;;;;5004862;28;20969;-73
2021/01/19 08:20:25;;;;;;;5.50;1.90;;;7.10;76.00;;;;;;5009088;28;20418;-72
2021/01/19 08:22:51;;;;;;;3.58;2.08;;;7.10;74.90;;;;;;5010077;28;20392;-72
2021/01/19 08:25:32;;;;;;;4.40;1.83;;;7.20;76.20;;;;;;5008021;28;20752;-73
2021/01/19 08:27:59;;;;;;;3.97;2.40;;;7.20;74.40;;;;;;5004523;28;21022;-73
2021/01/19 08:30:27;;;;;;;3.00;1.70;;;7.10;76.50;;;;;;4996398;28;20765;-71
2021/01/19 08:32:55;;;;;;;2.42;1.80;;;7.10;76.70;;;;;;5009668;28;20438;-75
2021/01/19 08:35:22;;;;;;;4.10;2.13;;;7.10;76.80;;;;;;5010472;28;20417;-72
2021/01/19 08:37:53;;;;;;;3.70;2.17;;;7.10;77.90;;;;;;5014093;28;20434;-73
2021/01/19 08:40:33;;;;;;;4.00;2.22;;;7.10;77.00;;;;;;5013010;28;20404;-73
2021/01/19 08:43:03;;;;;;;3.53;2.10;;;7.20;76.30;;;;;;5014309;28;20372;-75
2021/01/19 08:45:34;;;;;;;3.97;1.77;;;7.20;75.20;;;;;;5014027;28;20902;-73
2021/01/19 08:48:01;;;;;;;3.95;2.47;;;7.10;76.50;;;;;;5017026;28;20415;-73
2021/01/19 08:50:28;;;;;;;5.38;2.20;;;7.10;75.70;;;;;;5017780;28;20509;-73
2021/01/19 08:52:54;;;;;;;4.20;1.70;;;7.20;75.50;;;;;;5016519;28;20408;-74
2021/01/19 08:55:21;;;;;;;3.95;2.03;;;7.20;75.50;;;;;;5011723;28;20409;-74
2021/01/19 08:57:53;;;;;;;5.00;1.80;;;7.20;75.60;;;;;;5005219;28;20893;-72
2021/01/19 09:00:25;;;;;;;3.13;1.80;;;7.20;74.60;;;;;;5012811;28;20409;-73
2021/01/19 09:02:55;;;;;;;2.80;1.50;;;7.20;74.30;;;;;;5012554;28;20455;-73
2021/01/19 09:05:31;;;;;;;5.63;1.60;;;7.20;76.50;;;;;;5013501;28;20460;-73
2021/01/19 09:07:58;;;;;;;3.78;1.40;;;7.20;73.90;;;;;;5011768;28;20415;-72
2021/01/19 09:10:29;;;;;;;4.20;1.40;;;7.20;73.80;;;;;;5012657;28;20454;-72
2021/01/19 09:12:56;;;;;;;2.10;1.40;;;7.20;74.60;;;;;;5012732;28;20450;-73
2021/01/19 09:15:22;;;;;;;2.90;1.40;;;7.20;74.60;;;;;;5013101;28;20777;-75
2021/01/19 09:17:51;;;;;;;4.57;1.58;;;7.30;74.30;;;;;;5012470;28;20452;-73
2021/01/19 09:20:17;;;;;;;2.60;1.52;;;7.30;74.30;;;;;;5010878;28;20404;-72
2021/01/19 09:22:42;;;;;;;2.70;1.90;;;7.20;74.70;;;;;;5011363;28;20435;-72
2021/01/19 09:25:08;;;;;;;4.50;2.00;;;7.20;74.50;;;;;;5012142;28;20404;-73
2021/01/19 09:27:35;;;;;;;6.30;1.70;;;7.30;75.20;;;;;;5012345;28;20507;-74
2021/01/19 09:30:09;;;;;;;2.60;1.73;;;7.20;76.20;;;;;;5012493;28;20412;-73
2021/01/19 09:32:40;;;;;;;3.65;1.80;;;7.30;76.20;;;;;;5012443;28;20407;-74
2021/01/19 09:35:07;;;;;;;5.23;1.70;;;7.20;75.20;;;;;;5013149;28;20483;-73
2021/01/19 09:37:33;;;;;;;2.00;1.20;;;7.40;72.80;;;;;;5012990;28;20916;-71
2021/01/19 09:39:59;;;;;;;2.80;1.20;;;7.30;75.30;;;;;;5010831;28;20409;-75
2021/01/19 09:42:25;;;;;;;3.30;1.23;;;7.30;73.20;;;;;;5012500;28;20396;-75
2021/01/19 09:44:51;;;;;;;1.35;1.13;;;7.30;74.60;;;;;;5011083;28;20403;-74
2021/01/19 09:47:23;;;;;;;2.88;1.50;;;7.30;74.90;;;;;;5012572;28;20385;-74
2021/01/19 09:49:51;;;;;;;3.95;1.52;;;7.30;76.00;;;;;;5011291;28;20507;-73
2021/01/19 09:52:17;;;;;;;3.92;2.00;;;7.30;75.20;;;;;;5012550;28;20385;-73
2021/01/19 09:54:43;;;;;;;3.55;1.70;;;7.40;72.90;;;;;;5011043;28;20930;-72
2021/01/19 09:57:08;;;;;;;4.25;1.50;;;7.40;73.00;;;;;;5011256;28;20444;-73
2021/01/19 09:59:35;;;;;;;3.85;1.40;;;7.40;73.10;;;;;;5012449;28;20381;-72
2021/01/19 10:02:01;;;;;;;4.13;1.25;;;7.40;71.80;;;;;;5011336;28;20416;-71
2021/01/19 10:04:28;;;;;;;1.60;1.50;;;7.40;72.30;;;;;;5012825;28;20385;-70
2021/01/19 10:07:26;;;;;;;1.60;1.50;;;7.40;71.30;;;;;;5011938;28;20409;-73
2021/01/19 10:09:52;;;;;;;2.70;1.10;;;7.50;71.00;;;;;;4999752;28;20420;-75
2021/01/19 10:12:18;;;;;;;2.72;1.20;;;7.50;70.20;;;;;;5012614;28;20755;-72
2021/01/19 10:14:44;;;;;;;1.20;1.10;;;7.60;70.50;;;;;;5011599;28;20408;-73
2021/01/19 10:17:09;;;;;;;2.00;1.10;;;7.60;70.40;;;;;;5011455;28;20775;-74
2021/01/19 10:19:37;;;;;;;4.15;1.30;;;7.60;71.20;;;;;;5010592;28;20396;-73
2021/01/19 10:22:08;;;;;;;3.33;1.25;;;7.60;70.80;;;;;;5011512;28;20401;-73
2021/01/19 10:24:35;;;;;;;4.07;1.40;;;7.60;72.10;;;;;;5011912;28;20529;-73
2021/01/19 10:27:01;;;;;;;4.78;1.40;;;7.60;71.50;;;;;;5011868;28;20906;-74
2021/01/19 10:29:29;;;;;;;2.38;1.52;;;7.60;72.80;;;;;;5012287;28;20385;-74
2021/01/19 10:31:59;;;;;;;2.50;1.30;;;7.70;72.50;;;;;;5011191;28;20523;-75
2021/01/19 10:34:27;;;;;;;2.03;1.60;;;7.70;72.90;;;;;;5012430;28;20463;-72
2021/01/19 10:36:54;;;;;;;2.20;1.40;;;7.70;72.90;;;;;;5010356;28;20404;-74
2021/01/19 10:39:23;;;;;;;4.32;1.50;;;7.70;72.50;;;;;;5010573;28;20409;-72
2021/01/19 10:41:49;;;;;;;2.20;1.25;;;7.70;73.60;;;;;;5013728;28;20396;-72
2021/01/19 10:44:15;;;;;;;2.60;1.38;;;7.70;71.70;;;;;;5010957;28;20415;-74
2021/01/19 10:46:42;;;;;;;1.52;1.42;;;7.70;72.20;;;;;;5012088;28;20388;-74
2021/01/19 10:49:12;;;;;;;2.50;1.60;;;7.80;71.30;;;;;;5010493;28;20936;-72
2021/01/19 10:51:38;;;;;;;3.20;1.70;;;7.70;71.90;;;;;;5009715;28;20404;-74
2021/01/19 10:54:15;;;;;;;2.50;1.88;;;7.80;71.50;;;;;;5010299;28;20405;-72
2021/01/19 10:56:43;;;;;;;3.80;2.05;;;7.80;71.00;;;;;;5010910;28;20912;-74
2021/01/19 10:59:09;;;;;;;2.45;1.80;;;7.80;71.50;;;;;;5010633;28;20470;-72
2021/01/19 11:01:35;;;;;;;5.20;2.03;;;7.80;70.40;;;;;;5009312;28;20412;-74
2021/01/19 11:04:02;;;;;;;5.97;2.53;;;7.80;71.20;;;;;;5010662;28;20496;-73
2021/01/19 11:06:36;;;;;;;3.25;2.15;;;7.90;73.30;;;;;;5011663;28;20790;-74
2021/01/19 11:09:04;;;;;;;3.57;2.57;;;7.80;73.70;;;;;;5008783;28;20458;-72
2021/01/19 11:11:29;;;;;;;2.70;2.50;;;7.80;74.30;;;;;;5009474;28;20512;-75
2021/01/19 11:14:02;;;;;;;3.40;3.10;;;7.80;74.60;;;;;;5010031;28;21059;-71
2021/01/19 11:16:39;;;;;;;4.13;3.83;;;7.90;74.30;;;;;;5010263;28;20396;-74
2021/01/19 11:19:10;;;;;;;8.48;3.83;;;7.80;76.00;;;;;;5010865;28;20502;-73
2021/01/19 11:21:37;;;;;;;6.07;3.45;;;7.80;76.60;;;;;;5007576;28;20408;-74
2021/01/19 11:24:04;;;;;;;3.30;3.00;;;7.80;78.10;;;;;;5011903;28;20393;-73
2021/01/19 11:26:31;;;;;;;3.65;2.63;;;7.80;78.70;;;;;;5010208;28;20408;-73
2021/01/19 11:28:56;;;;;;;3.40;1.60;;;7.90;77.90;;;;;;5010558;28;20431;-73
2021/01/19 11:31:24;;;;;;;2.50;1.58;;;8.00;77.10;;;;;;5010305;28;20910;-74
2021/01/19 11:33:50;;;;;;;2.20;1.30;;;8.00;76.80;;;;;;5010860;28;20432;-72
2021/01/19 11:36:27;;;;;;;2.70;1.20;;;8.00;75.30;;;;;;5010279;28;20404;-72
2021/01/19 11:38:55;;;;;;;1.85;1.35;;;8.10;74.10;;;;;;5010867;28;20450;-74
2021/01/19 11:41:23;;;;;;;3.70;1.70;;;8.10;75.00;;;;;;5010212;28;20905;-72
2021/01/19 11:43:49;;;;;;;1.92;1.30;;;8.10;74.60;;;;;;5009129;28;20765;-75
2021/01/19 11:46:27;;;;;;;3.20;1.50;;;8.10;73.90;;;;;;5013027;28;20390;-72
2021/01/19 11:48:54;;;;;;;2.80;1.50;;;8.10;74.40;;;;;;5013507;28;20423;-74
2021/01/19 11:51:25;;;;;;;2.78;1.50;;;8.20;73.00;;;;;;5012978;28;20423;-73
2021/01/19 11:53:52;;;;;;;1.73;1.20;;;8.20;72.80;;;;;;5014143;28;20517;-73
2021/01/19 11:56:18;;;;;;;1.60;1.50;;;8.30;72.20;;;;;;5014229;28;20446;-74
2021/01/19 11:58:45;;;;;;;1.50;1.40;;;8.30;72.30;;;;;;5014009;28;20413;-72
2021/01/19 12:01:18;;;;;;;3.00;1.50;;;8.40;71.20;;;;;;5013889;28;20440;-74
2021/01/19 12:03:43;;;;;;;1.60;1.40;;;8.40;70.90;;;;;;5013256;28;20389;-72
2021/01/19 12:06:09;;;;;;;1.42;1.23;;;8.40;71.60;;;;;;5014437;28;20388;-72
2021/01/19 12:08:34;;;;;;;1.95;1.30;;;8.50;70.90;;;;;;5013705;28;20435;-72
2021/01/19 12:11:00;;;;;;;2.67;1.77;;;8.50;70.90;;;;;;5013921;28;20412;-74
2021/01/19 12:13:26;;;;;;;1.90;1.50;;;8.50;71.90;;;;;;5014350;28;20521;-73
2021/01/19 12:15:51;;;;;;;1.63;1.40;;;8.50;73.40;;;;;;5011973;28;20452;-72
2021/01/19 12:18:17;;;;;;;3.08;1.55;;;8.50;73.20;;;;;;5011739;28;20408;-73
2021/01/19 12:20:42;;;;;;;2.57;1.50;;;8.60;73.50;;;;;;5008319;28;20412;-74
2021/01/19 12:23:08;;;;;;;3.03;1.60;;;8.60;72.70;;;;;;5014924;28;20431;-74
2021/01/19 12:25:33;;;;;;;2.20;1.30;;;8.70;72.90;;;;;;5013550;28;20411;-72
2021/01/19 12:28:01;;;;;;;2.37;1.30;;;8.70;72.60;;;;;;5011975;28;20421;-72
2021/01/19 12:30:26;;;;;;;2.47;1.70;;;8.70;72.50;;;;;;5006453;28;20409;-72
2021/01/19 12:32:52;;;;;;;3.08;1.50;;;8.80;71.10;;;;;;5014469;28;20395;-71
2021/01/19 12:35:18;;;;;;;2.03;1.40;;;8.80;70.00;;;;;;5015168;28;20455;-73
2021/01/19 12:37:43;;;;;;;2.40;1.45;;;8.80;69.30;;;;;;5015793;28;20423;-73
2021/01/19 12:40:10;;;;;;;1.80;1.40;;;8.90;70.20;;;;;;5013355;28;20412;-75
2021/01/19 12:42:35;;;;;;;2.20;1.30;;;8.90;69.30;;;;;;5014935;28;20856;-76
2021/01/19 12:45:01;;;;;;;2.50;1.23;;;8.90;69.00;;;;;;5008165;28;20466;-75
2021/01/19 12:47:27;;;;;;;2.05;1.40;;;8.90;69.50;;;;;;5006762;28;20408;-75
2021/01/19 12:49:53;;;;;;;2.90;1.40;;;9.00;68.80;;;;;;5004317;28;20776;-73
2021/01/19 12:52:18;;;;;;;5.00;1.40;;;9.00;67.70;;;;;;5005246;28;20479;-72
2021/01/19 12:54:44;;;;;;;1.50;1.30;;;9.10;68.20;;;;;;5009713;28;20389;-74
2021/01/19 12:57:13;;;;;;;1.40;1.30;;;9.10;68.60;;;;;;5010114;28;20745;-73
2021/01/19 12:59:43;;;;;;;3.30;1.20;;;9.10;68.70;;;;;;5009569;28;20479;-74
2021/01/19 13:02:09;;;;;;;1.40;1.30;;;9.10;68.80;;;;;;5010090;28;20739;-72
2021/01/19 13:04:35;;;;;;;1.10;1.00;;;9.00;69.30;;;;;;5007607;28;20408;-73